Time;durP1;ratioP1;P1;durP2;ratioP2;P2;SDS_P1;SDS_P2;PMS_P1;PMS_P2;Temp;Humidity;BMP_temperature;BMP_pressure;BME280_temperature;BME280_humidity;BME280_pressure;Samples;Min_cycle;Max_cycle;Signal;HPM_P1;HPM_P2
2021/08/12 00:00:07;;;;;;;14.82;4.70;;;;;;;;;;5136455;27;20027;-69
2021/08/12 00:02:52;;;;;;;12.40;4.30;;;;;;;;;;5132122;27;20478;-68
2021/08/12 00:05:37;;;;;;;13.75;4.40;;;;;;;;;;5135846;27;20043;-68
2021/08/12 00:08:21;;;;;;;;;;;;;;;;;;5134693;27;20039;-68
2021/08/12 00:11:05;;;;;;;9.98;4.45;;;;;;;;;;5136752;27;19914;-69
2021/08/12 00:13:50;;;;;;;7.15;4.57;;;;;;;;;;5133569;27;20027;-68
2021/08/12 00:16:36;;;;;;;10.60;4.88;;;;;;;;;;5132712;27;20481;-67
2021/08/12 00:19:20;;;;;;;13.02;4.13;;;;;;;;;;5137284;27;20035;-68
2021/08/12 00:22:04;;;;;;;6.80;3.83;;;;;;;;;;5135841;27;20391;-67
2021/08/12 00:24:49;;;;;;;10.13;4.30;;;;;;;;;;5122207;27;20031;-69
2021/08/12 00:27:33;;;;;;;11.90;3.95;;;;;;;;;;5119812;27;20039;-69
2021/08/12 00:30:18;;;;;;;6.85;4.03;;;;;;;;;;5106858;27;20027;-69
2021/08/12 00:33:04;;;;;;;6.53;3.65;;;;;;;;;;5118062;27;20039;-67
2021/08/12 00:35:49;;;;;;;7.07;3.95;;;;;;;;;;5138752;27;20023;-68
2021/08/12 00:38:34;;;;;;;5.38;3.35;;;;;;;;;;5117141;27;20035;-67
2021/08/12 00:41:20;;;;;;;9.88;3.67;;;;;;;;;;5117310;27;20035;-67
2021/08/12 00:44:06;;;;;;;10.85;3.72;;;;;;;;;;5132555;27;20039;-68
2021/08/12 00:46:52;;;;;;;7.63;4.38;;;;;;;;;;5120111;27;20039;-67
2021/08/12 00:49:38;;;;;;;9.45;4.00;;;;;;;;;;5133382;27;20035;-68
2021/08/12 00:52:26;;;;;;;8.20;4.30;;;;;;;;;;5125166;27;20040;-67
2021/08/12 00:55:12;;;;;;;7.13;3.72;;;;;;;;;;5099828;28;20482;-68
2021/08/12 00:57:57;;;;;;;6.22;4.03;;;;;;;;;;5098878;28;20373;-68
2021/08/12 01:00:42;;;;;;;7.18;3.50;;;;;;;;;;5109910;27;20035;-68
2021/08/12 01:03:26;;;;;;;10.18;4.28;;;;;;;;;;5115852;27;20483;-68
2021/08/12 01:06:11;;;;;;;;;;;;;;;;;;5129899;27;20031;-67
2021/08/12 01:09:01;;;;;;;4.28;3.47;;;;;;;;;;5102762;28;19934;-69
2021/08/12 01:11:52;;;;;;;4.07;3.30;;;;;;;;;;5105131;27;20023;-68
2021/08/12 01:14:50;;;;;;;7.10;4.75;;;;;;;;;;5097908;28;20044;-68
2021/08/12 01:17:56;;;;;;;8.57;3.85;;;;;;;;;;5115032;28;20032;-67
2021/08/12 01:20:51;;;;;;;9.05;3.78;;;;;;;;;;5099822;28;20035;-67
2021/08/12 01:23:38;;;;;;;15.32;4.15;;;;;;;;;;5103114;28;20035;-70
2021/08/12 01:26:23;;;;;;;5.53;3.60;;;;;;;;;;5119333;27;20039;-68
2021/08/12 01:29:10;;;;;;;11.15;4.00;;;;;;;;;;5118567;28;20031;-69
2021/08/12 01:32:02;;;;;;;6.60;3.53;;;;;;;;;;5116488;28;20031;-69
2021/08/12 01:35:07;;;;;;;8.13;4.00;;;;;;;;;;5113159;27;20038;-67
2021/08/12 01:37:58;;;;;;;10.73;3.70;;;;;;;;;;5131102;27;20380;-69
2021/08/12 01:40:44;;;;;;;7.15;4.15;;;;;;;;;;5112043;28;20032;-68
2021/08/12 01:43:31;;;;;;;6.18;3.63;;;;;;;;;;5103304;28;20043;-69
2021/08/12 01:46:25;;;;;;;5.03;4.05;;;;;;;;;;5120048;27;20035;-68
2021/08/12 01:49:09;;;;;;;6.55;4.47;;;;;;;;;;5123371;27;20035;-69
2021/08/12 01:51:54;;;;;;;5.15;3.30;;;;;;;;;;5116860;27;20027;-69
2021/08/12 01:54:42;;;;;;;5.22;3.83;;;;;;;;;;5106461;28;20388;-69
2021/08/12 01:57:27;;;;;;;7.30;3.65;;;;;;;;;;5119966;28;20479;-68
2021/08/12 02:00:12;;;;;;;13.43;3.35;;;;;;;;;;5102255;28;20487;-68
2021/08/12 02:03:00;;;;;;;9.30;4.07;;;;;;;;;;5117324;27;20036;-67
2021/08/12 02:05:47;;;;;;;5.22;3.35;;;;;;;;;;5103411;27;20039;-66
2021/08/12 02:08:31;;;;;;;6.95;3.50;;;;;;;;;;5102639;28;20515;-68
2021/08/12 02:11:17;;;;;;;5.15;3.47;;;;;;;;;;5110920;27;20027;-68
2021/08/12 02:14:02;;;;;;;8.02;3.88;;;;;;;;;;5122870;27;20028;-68
2021/08/12 02:16:48;;;;;;;8.23;4.05;;;;;;;;;;5110873;27;20387;-68
2021/08/12 02:19:34;;;;;;;6.85;3.20;;;;;;;;;;5108874;28;20396;-66
2021/08/12 02:22:20;;;;;;;7.00;3.55;;;;;;;;;;5102579;28;20656;-66
2021/08/12 02:25:13;;;;;;;9.88;3.75;;;;;;;;;;5117516;27;20486;-66
2021/08/12 02:27:59;;;;;;;6.00;3.60;;;;;;;;;;5106115;28;20044;-66
2021/08/12 02:30:44;;;;;;;6.40;3.50;;;;;;;;;;5128078;27;20387;-69
2021/08/12 02:33:32;;;;;;;6.32;3.83;;;;;;;;;;5122128;27;20497;-68
2021/08/12 02:36:18;;;;;;;6.65;3.28;;;;;;;;;;5131426;27;20027;-69
2021/08/12 02:39:03;;;;;;;6.38;3.08;;;;;;;;;;5127185;27;20054;-69
2021/08/12 02:41:48;;;;;;;5.35;3.50;;;;;;;;;;5101547;28;20031;-68
2021/08/12 02:44:34;;;;;;;9.55;4.18;;;;;;;;;;5099861;28;20040;-67
2021/08/12 02:47:20;;;;;;;7.32;4.47;;;;;;;;;;5116421;27;20031;-69
2021/08/12 02:50:06;;;;;;;6.88;3.58;;;;;;;;;;5122243;27;20039;-68
2021/08/12 02:52:51;;;;;;;4.75;3.60;;;;;;;;;;5118481;27;20031;-68
2021/08/12 02:55:37;;;;;;;4.88;3.35;;;;;;;;;;5115523;28;20043;-68
2021/08/12 02:58:22;;;;;;;6.70;4.00;;;;;;;;;;5111158;27;20027;-68
2021/08/12 03:01:08;;;;;;;6.70;4.10;;;;;;;;;;5124573;27;20043;-69
2021/08/12 03:03:52;;;;;;;6.18;3.75;;;;;;;;;;5121444;27;20027;-68
2021/08/12 03:06:38;;;;;;;9.25;3.90;;;;;;;;;;5110299;28;20036;-68
2021/08/12 03:09:25;;;;;;;5.10;3.47;;;;;;;;;;5114879;28;20523;-67
2021/08/12 03:12:09;;;;;;;7.63;3.75;;;;;;;;;;5113703;28;20036;-68
2021/08/12 03:14:55;;;;;;;7.40;3.80;;;;;;;;;;5115317;27;20031;-67
2021/08/12 03:17:41;;;;;;;7.60;4.28;;;;;;;;;;5122314;27;20043;-68
2021/08/12 03:20:28;;;;;;;7.88;4.20;;;;;;;;;;5100331;28;20036;-68
2021/08/12 03:23:14;;;;;;;6.80;3.53;;;;;;;;;;5104223;28;20061;-67
2021/08/12 03:25:59;;;;;;;11.85;3.80;;;;;;;;;;5118178;27;20044;-69
2021/08/12 03:28:43;;;;;;;8.30;3.70;;;;;;;;;;5106064;27;20047;-67
2021/08/12 03:31:28;;;;;;;9.45;4.00;;;;;;;;;;5114986;27;20502;-68
2021/08/12 03:34:13;;;;;;;9.65;4.20;;;;;;;;;;5115921;27;20047;-68
2021/08/12 03:36:58;;;;;;;13.05;4.32;;;;;;;;;;5112299;27;20023;-67
2021/08/12 03:39:43;;;;;;;19.05;6.50;;;;;;;;;;5110535;27;20035;-67
2021/08/12 03:42:27;;;;;;;6.70;3.95;;;;;;;;;;5104483;27;20039;-68
2021/08/12 03:45:13;;;;;;;8.93;4.40;;;;;;;;;;5126440;27;20035;-67
2021/08/12 03:47:58;;;;;;;8.65;3.88;;;;;;;;;;5116649;27;20031;-68
2021/08/12 03:50:42;;;;;;;7.32;4.43;;;;;;;;;;5117582;27;20780;-67
2021/08/12 03:53:27;;;;;;;;;;;;;;;;;;5131555;27;20035;-66
2021/08/12 03:56:11;;;;;;;7.77;4.50;;;;;;;;;;5116549;28;19926;-68
2021/08/12 03:58:56;;;;;;;10.13;4.72;;;;;;;;;;5124333;27;20040;-66
2021/08/12 04:01:41;;;;;;;;;;;;;;;;;;5104980;27;20039;-67
2021/08/12 04:04:27;;;;;;;6.70;4.70;;;;;;;;;;5109981;27;19935;-68
2021/08/12 04:07:12;;;;;;;10.70;4.32;;;;;;;;;;5128188;27;20044;-67
2021/08/12 04:09:56;;;;;;;7.28;4.35;;;;;;;;;;5126818;27;20031;-69
2021/08/12 04:12:41;;;;;;;8.07;4.20;;;;;;;;;;5116001;27;20023;-68
2021/08/12 04:15:26;;;;;;;13.55;4.88;;;;;;;;;;5113617;27;20043;-68
2021/08/12 04:18:11;;;;;;;15.48;5.30;;;;;;;;;;5131139;27;20031;-69
2021/08/12 04:20:56;;;;;;;15.77;4.65;;;;;;;;;;5113748;27;20032;-68
2021/08/12 04:23:41;;;;;;;9.55;4.40;;;;;;;;;;5112092;27;20035;-66
2021/08/12 04:26:29;;;;;;;7.30;4.75;;;;;;;;;;5114129;27;20043;-68
2021/08/12 04:29:13;;;;;;;10.52;4.30;;;;;;;;;;5107769;27;20039;-68
2021/08/12 04:31:58;;;;;;;16.27;5.25;;;;;;;;;;5115805;27;20368;-69
2021/08/12 04:34:42;;;;;;;;;;;;;;;;;;5122220;27;20455;-67
2021/08/12 04:37:33;;;;;;;24.98;6.93;;;;;;;;;;5112165;27;20287;-69
2021/08/12 04:40:19;;;;;;;16.02;4.88;;;;;;;;;;5115386;27;20031;-68
2021/08/12 04:43:05;;;;;;;14.75;5.18;;;;;;;;;;5110376;27;20035;-68
2021/08/12 04:45:49;;;;;;;10.88;5.07;;;;;;;;;;5125937;27;20027;-67
2021/08/12 04:48:36;;;;;;;10.00;5.03;;;;;;;;;;5120863;27;20050;-67
2021/08/12 04:51:20;;;;;;;18.00;5.97;;;;;;;;;;5117015;27;20040;-68
2021/08/12 04:54:04;;;;;;;12.00;5.25;;;;;;;;;;5119741;27;20031;-66
2021/08/12 04:56:50;;;;;;;20.55;4.57;;;;;;;;;;5117348;27;20027;-67
2021/08/12 04:59:35;;;;;;;16.23;5.50;;;;;;;;;;5120656;27;20034;-68
2021/08/12 05:02:19;;;;;;;18.70;5.38;;;;;;;;;;5107250;27;20031;-69
2021/08/12 05:05:05;;;;;;;22.70;6.63;;;;;;;;;;5126689;27;20036;-68
2021/08/12 05:07:49;;;;;;;15.20;5.68;;;;;;;;;;5131270;27;20482;-68
2021/08/12 05:10:33;;;;;;;16.23;5.40;;;;;;;;;;5119314;27;20039;-69
2021/08/12 05:13:18;;;;;;;13.85;5.30;;;;;;;;;;5109896;28;20035;-70
2021/08/12 05:16:03;;;;;;;22.00;6.35;;;;;;;;;;5101406;28;20040;-69
2021/08/12 05:18:47;;;;;;;10.85;6.07;;;;;;;;;;5108728;28;20039;-67
2021/08/12 05:21:32;;;;;;;10.82;5.18;;;;;;;;;;5106144;27;20035;-70
2021/08/12 05:24:17;;;;;;;14.23;4.70;;;;;;;;;;5115269;28;20031;-67
2021/08/12 05:27:01;;;;;;;12.73;5.10;;;;;;;;;;5098431;28;20051;-69
2021/08/12 05:29:48;;;;;;;9.45;4.97;;;;;;;;;;5131466;27;20051;-67
2021/08/12 05:32:33;;;;;;;12.93;6.45;;;;;;;;;;5133431;27;20031;-67
2021/08/12 05:35:20;;;;;;;10.30;5.03;;;;;;;;;;5119347;27;20031;-68
2021/08/12 05:38:05;;;;;;;11.75;5.00;;;;;;;;;;5105753;28;20482;-67
2021/08/12 05:40:49;;;;;;;12.27;5.70;;;;;;;;;;5121096;27;20035;-68
2021/08/12 05:43:33;;;;;;;;;;;;;;;;;;5130758;28;20035;-69
2021/08/12 05:46:22;;;;;;;11.85;4.93;;;;;;;;;;5097915;28;20299;-67
2021/08/12 05:49:06;;;;;;;14.07;4.82;;;;;;;;;;5107969;28;20040;-69
2021/08/12 05:51:51;;;;;;;15.20;4.88;;;;;;;;;;5099701;28;20392;-69
2021/08/12 05:54:36;;;;;;;22.83;6.45;;;;;;;;;;5117681;28;20367;-67
2021/08/12 05:57:21;;;;;;;24.60;6.35;;;;;;;;;;5119288;27;20043;-68
2021/08/12 06:00:07;;;;;;;22.55;5.47;;;;;;;;;;5112210;28;20491;-68
2021/08/12 06:03:04;;;;;;;16.45;4.90;;;;;;;;;;5126063;28;20628;-67
2021/08/12 06:05:55;;;;;;;9.90;4.22;;;;;;;;;;5113179;28;20039;-69
2021/08/12 06:08:40;;;;;;;21.05;4.20;;;;;;;;;;5100353;28;20039;-69
2021/08/12 06:11:25;;;;;;;13.48;3.92;;;;;;;;;;5112767;28;20036;-69
2021/08/12 06:14:10;;;;;;;23.55;4.05;;;;;;;;;;5101396;28;20491;-71
2021/08/12 06:16:55;;;;;;;16.05;4.03;;;;;;;;;;5103880;28;20036;-70
2021/08/12 06:19:41;;;;;;;9.80;3.80;;;;;;;;;;5098910;28;20035;-70
2021/08/12 06:22:26;;;;;;;18.75;5.43;;;;;;;;;;5116261;28;20039;-70
2021/08/12 06:25:11;;;;;;;13.77;4.05;;;;;;;;;;5132221;28;20047;-69
2021/08/12 06:27:56;;;;;;;15.77;4.18;;;;;;;;;;5128988;28;20039;-70
2021/08/12 06:30:40;;;;;;;;;;;;;;;;;;5123429;27;20035;-70
2021/08/12 06:33:27;;;;;;;11.10;4.53;;;;;;;;;;5103946;27;19914;-69
2021/08/12 06:36:13;;;;;;;34.30;5.53;;;;;;;;;;5110033;28;20031;-69
2021/08/12 06:38:59;;;;;;;30.70;5.32;;;;;;;;;;5111341;27;20035;-68
2021/08/12 06:41:43;;;;;;;23.40;5.15;;;;;;;;;;5119635;27;20027;-71
2021/08/12 06:44:28;;;;;;;;;;;;;;;;;;5114741;27;20036;-69
2021/08/12 06:47:12;;;;;;;11.48;3.75;;;;;;;;;;5124281;27;20372;-70
2021/08/12 06:49:57;;;;;;;9.30;3.70;;;;;;;;;;5112963;27;20031;-69
2021/08/12 06:52:42;;;;;;;15.25;4.22;;;;;;;;;;5111534;28;20035;-70
2021/08/12 06:55:29;;;;;;;11.30;5.07;;;;;;;;;;5122566;27;20035;-70
2021/08/12 06:58:14;;;;;;;15.70;3.92;;;;;;;;;;5123489;27;20035;-70
2021/08/12 07:01:01;;;;;;;10.38;4.30;;;;;;;;;;5132077;27;20039;-69
2021/08/12 07:03:45;;;;;;;17.95;4.40;;;;;;;;;;5113962;27;20036;-68
2021/08/12 07:06:30;;;;;;;27.02;4.60;;;;;;;;;;5108650;27;20384;-72
2021/08/12 07:09:15;;;;;;;25.65;4.68;;;;;;;;;;5118400;27;20031;-70
2021/08/12 07:11:59;;;;;;;13.80;4.28;;;;;;;;;;5109885;27;20028;-69
2021/08/12 07:14:45;;;;;;;24.15;4.50;;;;;;;;;;5118620;27;20027;-70
2021/08/12 07:17:31;;;;;;;14.85;4.63;;;;;;;;;;5137075;27;20028;-70
2021/08/12 07:20:15;;;;;;;12.00;5.60;;;;;;;;;;5135292;27;20039;-77
2021/08/12 07:23:02;;;;;;;23.75;4.55;;;;;;;;;;5104506;28;20537;-72
2021/08/12 07:25:47;;;;;;;9.18;4.85;;;;;;;;;;5101663;28;20043;-69
2021/08/12 07:28:31;;;;;;;16.08;5.82;;;;;;;;;;5124544;27;20035;-68
2021/08/12 07:31:17;;;;;;;10.77;6.05;;;;;;;;;;5132702;27;20387;-70
2021/08/12 07:34:03;;;;;;;16.52;6.13;;;;;;;;;;5101432;28;20039;-69
2021/08/12 07:36:47;;;;;;;11.07;6.18;;;;;;;;;;5125359;27;20395;-70
2021/08/12 07:39:31;;;;;;;26.38;6.47;;;;;;;;;;5124145;27;20031;-68
2021/08/12 07:42:19;;;;;;;16.25;5.07;;;;;;;;;;5135311;27;20039;-70
2021/08/12 07:45:05;;;;;;;16.20;6.93;;;;;;;;;;5109073;27;20032;-69
2021/08/12 07:47:50;;;;;;;27.70;7.43;;;;;;;;;;5103730;28;20039;-70
2021/08/12 07:50:34;;;;;;;25.80;6.72;;;;;;;;;;5117237;28;20035;-72
2021/08/12 07:53:18;;;;;;;;;;;;;;;;;;5131738;27;20475;-67
2021/08/12 07:56:02;;;;;;;12.75;4.40;;;;;;;;;;5140859;27;19918;-73
2021/08/12 07:58:47;;;;;;;27.52;5.07;;;;;;;;;;5137250;27;20032;-68
2021/08/12 08:01:32;;;;;;;7.65;3.63;;;;;;;;;;5136562;27;20035;-68
2021/08/12 08:04:16;;;;;;;54.10;5.53;;;;;;;;;;5126822;27;20035;-68
2021/08/12 08:07:01;;;;;;;27.48;5.40;;;;;;;;;;5133677;27;20042;-68
2021/08/12 08:09:46;;;;;;;21.15;4.43;;;;;;;;;;5131224;27;20371;-69
2021/08/12 08:12:30;;;;;;;25.85;5.88;;;;;;;;;;5124074;27;20031;-69
2021/08/12 08:15:16;;;;;;;16.83;4.10;;;;;;;;;;5124706;27;20023;-75
2021/08/12 08:18:01;;;;;;;9.35;3.67;;;;;;;;;;5122558;27;20027;-74
2021/08/12 08:20:46;;;;;;;10.80;4.20;;;;;;;;;;5121868;27;20032;-72
2021/08/12 08:23:30;;;;;;;8.43;3.20;;;;;;;;;;5126910;27;20035;-75
2021/08/12 08:26:15;;;;;;;11.20;3.25;;;;;;;;;;5122505;27;20887;-74
2021/08/12 08:28:59;;;;;;;10.05;3.85;;;;;;;;;;5121647;27;20035;-75
2021/08/12 08:31:46;;;;;;;8.27;3.65;;;;;;;;;;5126509;27;20091;-75
2021/08/12 08:34:30;;;;;;;11.10;3.95;;;;;;;;;;5134145;27;20027;-75
2021/08/12 08:37:15;;;;;;;9.13;3.90;;;;;;;;;;5115102;27;20495;-74
2021/08/12 08:40:01;;;;;;;11.50;4.07;;;;;;;;;;5124709;27;20039;-75
2021/08/12 08:42:48;;;;;;;9.68;4.63;;;;;;;;;;5129703;27;20031;-75
2021/08/12 08:45:34;;;;;;;14.55;3.78;;;;;;;;;;5126151;27;20031;-75
2021/08/12 08:48:19;;;;;;;5.97;3.75;;;;;;;;;;5119228;27;20047;-75
2021/08/12 08:51:05;;;;;;;9.65;4.07;;;;;;;;;;5125932;27;20039;-75
2021/08/12 08:53:50;;;;;;;11.18;4.25;;;;;;;;;;5121268;27;20031;-75
2021/08/12 08:56:35;;;;;;;8.85;3.58;;;;;;;;;;5119514;27;20044;-75
2021/08/12 08:59:20;;;;;;;5.22;3.85;;;;;;;;;;5119624;28;20491;-75
2021/08/12 09:02:06;;;;;;;11.48;3.88;;;;;;;;;;5113846;28;20035;-75
2021/08/12 09:04:50;;;;;;;7.03;4.60;;;;;;;;;;5128708;27;20035;-75
2021/08/12 09:07:36;;;;;;;9.60;4.35;;;;;;;;;;5138906;27;20039;-75
2021/08/12 09:10:21;;;;;;;7.88;3.97;;;;;;;;;;5122860;27;20036;-75
2021/08/12 09:13:07;;;;;;;10.98;4.03;;;;;;;;;;5127873;27;20027;-74
2021/08/12 09:15:52;;;;;;;7.63;4.03;;;;;;;;;;5127831;27;20502;-72
2021/08/12 09:18:36;;;;;;;19.35;4.65;;;;;;;;;;5123324;27;20032;-70
2021/08/12 09:21:20;;;;;;;11.55;4.68;;;;;;;;;;5117756;28;20084;-69
2021/08/12 09:24:05;;;;;;;8.48;4.18;;;;;;;;;;5122347;27;20031;-71
2021/08/12 09:26:49;;;;;;;6.57;4.13;;;;;;;;;;5123592;27;20035;-71
2021/08/12 09:29:34;;;;;;;7.88;4.03;;;;;;;;;;5135133;27;20035;-71
2021/08/12 09:32:19;;;;;;;8.50;3.80;;;;;;;;;;5125090;27;20379;-71
2021/08/12 09:35:05;;;;;;;7.93;4.22;;;;;;;;;;5124692;27;20031;-69
2021/08/12 09:37:52;;;;;;;10.30;4.13;;;;;;;;;;5139138;27;20039;-70
2021/08/12 09:40:37;;;;;;;11.13;4.28;;;;;;;;;;5139431;27;20039;-71
2021/08/12 09:43:22;;;;;;;12.15;4.32;;;;;;;;;;5121820;27;20043;-71
2021/08/12 09:46:08;;;;;;;10.57;4.07;;;;;;;;;;5118937;27;20044;-71
2021/08/12 09:48:58;;;;;;;7.13;4.70;;;;;;;;;;5119178;28;20408;-70
2021/08/12 09:51:42;;;;;;;6.60;4.50;;;;;;;;;;5100984;28;20039;-71
2021/08/12 09:54:30;;;;;;;9.18;4.18;;;;;;;;;;5132155;27;20027;-70
2021/08/12 09:57:19;;;;;;;7.85;4.25;;;;;;;;;;5139591;27;20482;-71
2021/08/12 10:00:15;;;;;;;11.80;4.53;;;;;;;;;;5132496;27;20039;-71
2021/08/12 10:03:01;;;;;;;6.30;4.13;;;;;;;;;;5117768;28;20035;-71
2021/08/12 10:05:45;;;;;;;7.30;4.20;;;;;;;;;;5143649;27;20039;-70
2021/08/12 10:08:35;;;;;;;6.45;3.85;;;;;;;;;;5130628;27;20039;-70
2021/08/12 10:11:23;;;;;;;5.22;3.22;;;;;;;;;;5117743;27;20043;-70
2021/08/12 10:14:08;;;;;;;6.28;3.28;;;;;;;;;;5140110;27;20035;-71
2021/08/12 10:16:52;;;;;;;7.70;4.68;;;;;;;;;;5132103;27;20391;-71
2021/08/12 10:19:38;;;;;;;5.72;3.45;;;;;;;;;;5129940;27;20126;-69
2021/08/12 10:22:22;;;;;;;8.30;4.00;;;;;;;;;;5125943;27;20039;-70
2021/08/12 10:25:07;;;;;;;9.65;4.07;;;;;;;;;;5108786;28;20040;-72
2021/08/12 10:27:53;;;;;;;3.97;3.00;;;;;;;;;;5131407;27;20039;-74
2021/08/12 10:30:37;;;;;;;7.13;3.65;;;;;;;;;;5135912;27;20043;-73
2021/08/12 10:33:22;;;;;;;128.10;31.40;;;;;;;;;;5133923;27;20409;-73
2021/08/12 10:36:07;;;;;;;94.35;24.73;;;;;;;;;;5135962;27;20034;-72
2021/08/12 10:38:52;;;;;;;49.83;12.73;;;;;;;;;;5135012;27;20042;-73
2021/08/12 10:41:37;;;;;;;107.72;27.83;;;;;;;;;;5128847;27;20053;-72
2021/08/12 10:44:24;;;;;;;64.45;19.55;;;;;;;;;;5121540;27;20050;-72
2021/08/12 10:47:28;;;;;;;16.05;5.75;;;;;;;;;;5120876;27;20695;-71
2021/08/12 10:50:12;;;;;;;;;;;;;;;;;;5119703;27;20050;-71
2021/08/12 10:53:00;;;;;;;37.05;9.60;;;;;;;;;;5116397;27;20279;-73
2021/08/12 10:56:04;;;;;;;94.85;26.77;;;;;;;;;;5128214;27;20038;-73
2021/08/12 10:58:50;;;;;;;44.45;12.90;;;;;;;;;;5124718;27;20038;-73
2021/08/12 11:01:37;;;;;;;77.80;23.30;;;;;;;;;;5120591;27;20043;-73
2021/08/12 11:04:42;;;;;;;17.10;6.38;;;;;;;;;;5124318;27;20394;-72
2021/08/12 11:07:39;;;;;;;5.50;3.55;;;;;;;;;;5110039;27;20046;-72
2021/08/12 11:10:42;;;;;;;17.17;4.80;;;;;;;;;;5131750;27;20039;-72
2021/08/12 11:13:33;;;;;;;33.85;9.95;;;;;;;;;;5131164;27;20030;-72
2021/08/12 11:16:23;;;;;;;11.43;5.13;;;;;;;;;;5131937;27;20471;-72
2021/08/12 11:19:30;;;;;;;4.40;2.83;;;;;;;;;;5117543;27;20042;-71
2021/08/12 11:22:28;;;;;;;9.32;4.10;;;;;;;;;;5117712;27;20035;-73
2021/08/12 11:25:13;;;;;;;9.43;4.22;;;;;;;;;;5131845;27;20035;-73
2021/08/12 11:27:59;;;;;;;6.95;2.85;;;;;;;;;;5131328;27;20039;-73
2021/08/12 11:30:44;;;;;;;4.97;3.45;;;;;;;;;;5129137;27;20027;-73
2021/08/12 11:33:29;;;;;;;12.50;6.43;;;;;;;;;;5132804;27;20035;-73
2021/08/12 11:36:16;;;;;;;6.32;3.63;;;;;;;;;;5143511;27;20031;-73
2021/08/12 11:39:03;;;;;;;5.68;3.20;;;;;;;;;;5131904;27;20027;-73
2021/08/12 11:41:49;;;;;;;3.67;3.05;;;;;;;;;;5136343;27;20032;-72
2021/08/12 11:44:33;;;;;;;5.65;2.80;;;;;;;;;;5141551;27;20036;-73
2021/08/12 11:47:19;;;;;;;10.63;3.40;;;;;;;;;;5131393;27;20479;-72
2021/08/12 11:50:09;;;;;;;5.43;3.50;;;;;;;;;;5131052;27;20046;-73
2021/08/12 11:52:53;;;;;;;4.70;3.08;;;;;;;;;;5121652;27;20027;-73
2021/08/12 11:55:37;;;;;;;4.80;3.15;;;;;;;;;;5136033;27;20036;-73
2021/08/12 11:58:25;;;;;;;5.45;3.20;;;;;;;;;;5136163;27;20030;-73
2021/08/12 12:01:11;;;;;;;10.48;3.20;;;;;;;;;;5138959;27;20043;-73
2021/08/12 12:03:56;;;;;;;11.02;4.72;;;;;;;;;;5128105;27;20034;-73
2021/08/12 12:06:41;;;;;;;4.07;2.90;;;;;;;;;;5138122;27;20027;-73
2021/08/12 12:09:27;;;;;;;6.32;4.15;;;;;;;;;;5134683;27;20027;-73
2021/08/12 12:12:12;;;;;;;9.57;5.35;;;;;;;;;;5133465;27;20046;-73
2021/08/12 12:14:57;;;;;;;8.32;3.13;;;;;;;;;;5131490;27;20023;-73
2021/08/12 12:17:43;;;;;;;12.20;5.45;;;;;;;;;;5132921;27;20039;-73
2021/08/12 12:20:29;;;;;;;13.80;4.88;;;;;;;;;;5119503;27;20039;-73
2021/08/12 12:23:17;;;;;;;8.55;4.82;;;;;;;;;;5129898;27;20383;-73
2021/08/12 12:26:03;;;;;;;5.90;4.07;;;;;;;;;;5131968;27;20039;-73
2021/08/12 12:28:50;;;;;;;10.98;3.58;;;;;;;;;;5127443;27;20035;-73
2021/08/12 12:31:36;;;;;;;16.15;4.88;;;;;;;;;;5130353;27;20035;-72
2021/08/12 12:34:20;;;;;;;7.70;3.55;;;;;;;;;;5130172;27;20043;-73
2021/08/12 12:37:04;;;;;;;13.00;6.32;;;;;;;;;;5127956;27;20479;-73
2021/08/12 12:39:49;;;;;;;9.18;4.50;;;;;;;;;;5129174;27;20042;-73
2021/08/12 12:42:34;;;;;;;7.18;2.78;;;;;;;;;;5128289;27;20031;-72
2021/08/12 12:45:21;;;;;;;7.57;4.22;;;;;;;;;;5127028;27;20036;-73
2021/08/12 12:48:08;;;;;;;7.68;3.35;;;;;;;;;;5124478;27;20027;-73
2021/08/12 12:50:53;;;;;;;7.43;2.50;;;;;;;;;;5136326;27;20031;-73
2021/08/12 12:53:40;;;;;;;5.68;3.78;;;;;;;;;;5127067;27;20028;-73
2021/08/12 12:56:25;;;;;;;8.57;4.30;;;;;;;;;;5133562;27;20031;-73
2021/08/12 12:59:11;;;;;;;18.52;4.47;;;;;;;;;;5132484;27;20031;-73
2021/08/12 13:01:57;;;;;;;9.90;3.97;;;;;;;;;;5128562;27;20047;-73
2021/08/12 13:04:41;;;;;;;6.95;3.10;;;;;;;;;;5112264;27;20498;-73
2021/08/12 13:07:25;;;;;;;5.93;3.35;;;;;;;;;;5127823;27;20047;-73
2021/08/12 13:10:17;;;;;;;8.38;3.20;;;;;;;;;;5137776;27;20039;-73
2021/08/12 13:13:02;;;;;;;20.38;3.78;;;;;;;;;;5128385;27;20475;-73
2021/08/12 13:15:49;;;;;;;16.33;5.28;;;;;;;;;;5138103;27;20043;-73
2021/08/12 13:18:53;;;;;;;11.32;4.40;;;;;;;;;;5133106;27;20031;-73
2021/08/12 13:21:39;;;;;;;3.08;2.35;;;;;;;;;;5125053;27;20031;-73
2021/08/12 13:24:42;;;;;;;9.40;2.97;;;;;;;;;;5129629;27;20378;-73
2021/08/12 13:27:26;;;;;;;6.13;3.42;;;;;;;;;;5118415;27;20040;-73
2021/08/12 13:30:11;;;;;;;5.97;3.20;;;;;;;;;;5132709;27;20483;-72
2021/08/12 13:32:58;;;;;;;8.68;3.70;;;;;;;;;;5124205;27;20035;-73
2021/08/12 13:35:42;;;;;;;4.95;2.88;;;;;;;;;;5128850;27;20046;-72
2021/08/12 13:38:27;;;;;;;4.97;2.58;;;;;;;;;;5107961;28;20491;-73
2021/08/12 13:41:11;;;;;;;5.45;2.53;;;;;;;;;;5127469;28;20059;-73
2021/08/12 13:43:56;;;;;;;6.00;3.03;;;;;;;;;;5137941;27;20364;-73
2021/08/12 13:46:41;;;;;;;3.35;2.65;;;;;;;;;;5129595;27;20379;-73
2021/08/12 13:49:26;;;;;;;9.02;3.53;;;;;;;;;;5129565;27;20506;-73
2021/08/12 13:52:11;;;;;;;5.38;3.15;;;;;;;;;;5131667;27;20031;-73
2021/08/12 13:54:56;;;;;;;3.42;2.67;;;;;;;;;;5130030;27;20023;-73
2021/08/12 13:57:41;;;;;;;9.13;2.60;;;;;;;;;;5128670;27;20035;-73
2021/08/12 14:00:25;;;;;;;5.13;2.95;;;;;;;;;;5130205;27;21574;-73
2021/08/12 14:03:12;;;;;;;8.05;2.70;;;;;;;;;;5127967;28;20043;-73
2021/08/12 14:05:56;;;;;;;6.75;2.05;;;;;;;;;;5130410;27;20023;-73
2021/08/12 14:08:40;;;;;;;3.10;2.22;;;;;;;;;;5126946;27;20043;-73
2021/08/12 14:11:24;;;;;;;3.35;2.40;;;;;;;;;;5131941;27;20031;-73
2021/08/12 14:14:09;;;;;;;4.50;2.60;;;;;;;;;;5131994;27;20031;-73
2021/08/12 14:16:53;;;;;;;6.68;3.15;;;;;;;;;;5127082;27;20035;-73
2021/08/12 14:19:37;;;;;;;8.20;3.13;;;;;;;;;;5130599;27;20035;-73
2021/08/12 14:22:22;;;;;;;8.27;2.88;;;;;;;;;;5127622;27;20376;-73
2021/08/12 14:25:06;;;;;;;4.40;3.17;;;;;;;;;;5134923;27;20031;-73
2021/08/12 14:27:51;;;;;;;5.03;2.38;;;;;;;;;;5129729;27;20391;-73
2021/08/12 14:30:35;;;;;;;6.38;2.63;;;;;;;;;;5115815;27;20040;-73
2021/08/12 14:33:21;;;;;;;5.45;2.40;;;;;;;;;;5124656;27;20339;-72
2021/08/12 14:36:06;;;;;;;53.78;5.53;;;;;;;;;;5124958;27;20039;-73
2021/08/12 14:38:52;;;;;;;5.68;2.80;;;;;;;;;;5122468;27;20046;-73
2021/08/12 14:41:38;;;;;;;6.30;2.58;;;;;;;;;;5132987;27;20556;-73
2021/08/12 14:44:23;;;;;;;10.82;2.42;;;;;;;;;;5127075;27;20031;-73
2021/08/12 14:47:07;;;;;;;6.68;2.50;;;;;;;;;;5123985;27;20046;-73
2021/08/12 14:49:51;;;;;;;5.68;2.60;;;;;;;;;;5124102;27;20043;-73
2021/08/12 14:52:37;;;;;;;6.40;2.83;;;;;;;;;;5128127;27;20035;-73
2021/08/12 14:55:22;;;;;;;6.35;2.40;;;;;;;;;;5132012;27;20031;-73
2021/08/12 14:58:07;;;;;;;3.25;2.17;;;;;;;;;;5131007;27;20491;-73
2021/08/12 15:00:51;;;;;;;12.13;2.58;;;;;;;;;;5132988;27;20811;-73
2021/08/12 15:03:36;;;;;;;15.77;3.10;;;;;;;;;;5138367;27;20387;-73
2021/08/12 15:06:20;;;;;;;9.27;2.42;;;;;;;;;;5133442;27;20032;-73
2021/08/12 15:09:05;;;;;;;5.53;2.95;;;;;;;;;;5136275;27;20375;-73
2021/08/12 15:11:50;;;;;;;6.90;2.80;;;;;;;;;;5136777;27;20515;-73
2021/08/12 15:14:35;;;;;;;4.38;2.80;;;;;;;;;;5135057;27;20031;-73
2021/08/12 15:17:19;;;;;;;20.25;3.53;;;;;;;;;;5131144;27;20028;-73
2021/08/12 15:20:04;;;;;;;9.02;2.72;;;;;;;;;;5134694;27;20031;-73
2021/08/12 15:22:48;;;;;;;11.10;2.55;;;;;;;;;;5132392;27;20036;-74
2021/08/12 15:25:33;;;;;;;3.55;2.65;;;;;;;;;;5128568;27;20486;-73
2021/08/12 15:28:17;;;;;;;8.35;2.97;;;;;;;;;;5136043;27;20028;-74
2021/08/12 15:31:01;;;;;;;23.05;4.50;;;;;;;;;;5127773;27;20043;-74
2021/08/12 15:33:46;;;;;;;13.57;3.25;;;;;;;;;;5132482;27;20394;-73
2021/08/12 15:36:31;;;;;;;3.53;2.25;;;;;;;;;;5139352;27;20046;-74
2021/08/12 15:39:16;;;;;;;12.68;4.53;;;;;;;;;;5133191;27;20039;-73
2021/08/12 15:42:00;;;;;;;5.95;2.25;;;;;;;;;;5129760;27;20050;-72
2021/08/12 15:44:47;;;;;;;4.32;2.60;;;;;;;;;;5139554;27;20482;-73
2021/08/12 15:47:31;;;;;;;11.32;2.83;;;;;;;;;;5135528;27;20035;-74
2021/08/12 15:50:17;;;;;;;30.40;3.90;;;;;;;;;;5132704;27;20032;-72
2021/08/12 15:53:01;;;;;;;17.83;3.30;;;;;;;;;;5131742;27;20044;-73
2021/08/12 15:55:45;;;;;;;16.00;4.35;;;;;;;;;;5136859;27;20027;-73
2021/08/12 15:58:29;;;;;;;11.32;2.95;;;;;;;;;;5134107;27;20039;-73
2021/08/12 16:01:14;;;;;;;10.15;3.22;;;;;;;;;;5131009;27;20517;-73
2021/08/12 16:03:58;;;;;;;7.40;2.65;;;;;;;;;;5139383;27;20203;-73
2021/08/12 16:06:42;;;;;;;9.60;3.20;;;;;;;;;;5134477;27;20404;-73
2021/08/12 16:09:27;;;;;;;5.30;3.00;;;;;;;;;;5132807;27;20043;-73
2021/08/12 16:12:11;;;;;;;5.93;2.60;;;;;;;;;;5135171;27;20375;-73
2021/08/12 16:14:56;;;;;;;8.85;2.83;;;;;;;;;;5134133;27;20043;-73
2021/08/12 16:17:40;;;;;;;4.68;2.30;;;;;;;;;;5134056;27;20023;-73
2021/08/12 16:20:24;;;;;;;4.28;2.60;;;;;;;;;;5138337;27;20043;-73
2021/08/12 16:23:09;;;;;;;19.33;3.22;;;;;;;;;;5133478;27;20043;-73
2021/08/12 16:25:53;;;;;;;9.05;2.80;;;;;;;;;;5133752;27;20501;-73
2021/08/12 16:28:39;;;;;;;5.65;2.72;;;;;;;;;;5137779;27;20035;-73
2021/08/12 16:31:23;;;;;;;6.35;2.92;;;;;;;;;;5133511;27;20035;-73